This is the latest recevied weather packets stored in our database for station/object DB8NZ-11. If no packets are shown the sender has not sent any weather packets the latest 10 day(s).
| Time | Temp. | Humidity | Pressure | Rain* | Wind** | Luminosity | Snow |
|---|---|---|---|---|---|---|---|
| 1777623325 | 24.44° C | 20% | 1033.4 hPa | - | - | - | - |
| 1777622425 | 23.33° C | 21% | 1033.3 hPa | - | - | - | - |
| 1777621525 | 25° C | 21% | 1033.4 hPa | - | - | - | - |
| 1777620623 | 25° C | 22% | 1033.4 hPa | - | - | - | - |
| 1777620464 | 23.89° C | 24% | 1033.5 hPa | - | - | - | - |
| 1777619557 | 14.44° C | 38% | 1033.6 hPa | - | - | - | - |
| 1777618657 | 12.78° C | 41% | 1033.6 hPa | - | - | - | - |
| 1777617757 | 11.67° C | 45% | 1033.6 hPa | - | - | - | - |
| 1777616857 | 10.56° C | 49% | 1033.8 hPa | - | - | - | - |
| 1777615957 | 8.89° C | 56% | 1033.7 hPa | - | - | - | - |
| 1777615057 | 7.22° C | 63% | 1033.7 hPa | - | - | - | - |
| 1777614156 | 5.56° C | 67% | 1033.6 hPa | - | - | - | - |
| 1777613256 | 4.44° C | 71% | 1033.6 hPa | - | - | - | - |
| 1777612536 | 3.33° C | 71% | 1033.6 hPa | - | - | - | - |
| 1777611636 | 2.78° C | 69% | 1033.6 hPa | - | - | - | - |
| 1777610736 | 2.78° C | 69% | 1033.5 hPa | - | - | - | - |
| 1777610207 | 2.78° C | 69% | 1033.5 hPa | - | - | - | - |
| 1777609384 | 2.78° C | 68% | 1033.4 hPa | - | - | - | - |
| 1777608484 | 2.78° C | 69% | 1033.4 hPa | - | - | - | - |
| 1777607584 | 2.78° C | 67% | 1033.5 hPa | - | - | - | - |
| 1777606684 | 2.78° C | 67% | 1033.3 hPa | - | - | - | - |
| 1777605784 | 2.78° C | 65% | 1033.3 hPa | - | - | - | - |
| 1777604884 | 3.33° C | 65% | 1033.3 hPa | - | - | - | - |
| 1777603983 | 3.33° C | 65% | 1033.2 hPa | - | - | - | - |
| 1777603731 | 3.33° C | 64% | 1033.2 hPa | - | - | - | - |
* Rain since midnight (hover to see other rain measurements)
** Current wind speed in m/s (hover to see current wind gust speed)